Time;durP1;ratioP1;P1;durP2;ratioP2;P2;SDS_P1;SDS_P2;PMS_P1;PMS_P2;Temp;Humidity;BMP_temperature;BMP_pressure;BME280_temperature;BME280_humidity;BME280_pressure;Samples;Min_cycle;Max_cycle;Signal;HPM_P1;HPM_P2
2021/05/02 00:01:48;;;;;;;12.30;11.40;;;14.50;37.70;;;;;;5051081;28;20622;-54
2021/05/02 00:04:15;;;;;;;12.17;11.07;;;14.50;37.60;;;;;;5050696;28;20668;-54
2021/05/02 00:06:42;;;;;;;12.37;11.30;;;14.50;37.70;;;;;;5056906;28;20722;-54
2021/05/02 00:09:09;;;;;;;12.50;11.20;;;14.50;37.70;;;;;;5053804;28;20614;-54
2021/05/02 00:11:35;;;;;;;12.40;11.50;;;14.50;37.50;;;;;;5045354;28;21233;-54
2021/05/02 00:14:03;;;;;;;12.30;11.30;;;14.50;37.50;;;;;;5054331;28;20658;-54
2021/05/02 00:16:30;;;;;;;15.40;13.70;;;14.50;37.50;;;;;;5065538;28;20766;-54
2021/05/02 00:18:57;;;;;;;11.97;10.77;;;14.50;37.50;;;;;;5054114;28;20634;-54
2021/05/02 00:21:25;;;;;;;11.20;10.30;;;14.50;37.50;;;;;;5054325;28;20626;-54
2021/05/02 00:23:51;;;;;;;11.30;10.37;;;14.50;37.60;;;;;;5054051;28;20687;-54
2021/05/02 00:26:18;;;;;;;12.97;10.83;;;14.50;37.50;;;;;;5053888;28;20638;-55
2021/05/02 00:28:45;;;;;;;12.00;10.97;;;14.50;37.50;;;;;;5053949;28;20649;-54
2021/05/02 00:31:12;;;;;;;11.97;10.97;;;14.50;37.50;;;;;;5054438;28;20632;-54
2021/05/02 00:33:39;;;;;;;12.70;11.57;;;14.50;37.60;;;;;;5036382;28;20662;-54
2021/05/02 00:36:07;;;;;;;12.00;10.87;;;14.50;37.60;;;;;;5053703;28;20634;-54
2021/05/02 00:38:34;;;;;;;10.13;9.00;;;14.50;37.80;;;;;;5053328;28;20652;-53
2021/05/02 00:41:01;;;;;;;10.97;9.97;;;14.50;37.80;;;;;;5053593;28;20756;-54
2021/05/02 00:43:35;;;;;;;9.83;8.93;;;14.50;37.90;;;;;;5053829;28;21179;-54
2021/05/02 00:46:06;;;;;;;10.43;9.53;;;14.40;37.90;;;;;;5053750;28;21177;-55
2021/05/02 00:48:37;;;;;;;10.70;9.60;;;14.40;38.00;;;;;;5053293;28;20650;-54
2021/05/02 00:51:05;;;;;;;9.40;8.50;;;14.40;38.10;;;;;;5053276;28;20696;-54
2021/05/02 00:53:38;;;;;;;9.33;8.27;;;14.40;38.20;;;;;;5049856;28;20728;-54
2021/05/02 00:56:13;;;;;;;8.80;8.07;;;14.30;37.90;;;;;;5047041;28;20637;-54
2021/05/02 00:58:48;;;;;;;8.63;7.63;;;14.30;37.80;;;;;;5051837;28;20665;-54
2021/05/02 01:01:18;;;;;;;9.90;9.10;;;14.30;37.60;;;;;;5051879;28;20625;-54
2021/05/02 01:03:45;;;;;;;8.47;7.67;;;14.30;37.70;;;;;;5052089;28;20672;-54
2021/05/02 01:06:13;;;;;;;8.83;7.47;;;14.20;37.70;;;;;;5065545;28;20629;-54
2021/05/02 01:08:40;;;;;;;10.07;8.33;;;14.20;37.70;;;;;;5051876;28;20645;-54
2021/05/02 01:11:07;;;;;;;7.83;7.23;;;14.20;37.70;;;;;;5052524;28;20668;-54
2021/05/02 01:13:36;;;;;;;12.20;8.77;;;14.20;37.80;;;;;;5051823;28;21068;-54
2021/05/02 01:16:03;;;;;;;9.33;8.53;;;14.20;37.80;;;;;;5051274;28;20657;-54
2021/05/02 01:18:30;;;;;;;9.20;8.23;;;14.20;37.80;;;;;;5031950;28;20716;-54
2021/05/02 01:20:57;;;;;;;8.33;7.70;;;14.20;37.70;;;;;;5032412;28;20630;-54
2021/05/02 01:23:26;;;;;;;10.40;7.50;;;14.10;37.70;;;;;;5048482;28;20680;-54
2021/05/02 01:25:53;;;;;;;9.03;8.33;;;14.10;37.80;;;;;;5051456;28;21042;-54
2021/05/02 01:28:20;;;;;;;7.40;6.90;;;14.10;37.90;;;;;;5051777;28;20662;-53
2021/05/02 01:30:47;;;;;;;8.43;7.47;;;14.10;37.80;;;;;;5051724;28;20684;-52
2021/05/02 01:33:14;;;;;;;8.57;7.87;;;14.10;37.80;;;;;;5052098;28;20673;-53
2021/05/02 01:35:41;;;;;;;7.77;7.17;;;14.10;37.80;;;;;;5051307;28;20626;-53
2021/05/02 01:38:08;;;;;;;8.33;7.40;;;14.10;37.80;;;;;;5051794;28;20684;-53
2021/05/02 01:40:35;;;;;;;8.20;7.50;;;14.00;37.90;;;;;;5052002;28;20649;-53
2021/05/02 01:43:03;;;;;;;10.23;9.33;;;14.00;37.80;;;;;;5050318;28;20745;-53
2021/05/02 01:45:29;;;;;;;8.13;7.53;;;14.00;37.90;;;;;;5048593;28;20622;-53
2021/05/02 01:47:59;;;;;;;8.60;6.97;;;14.00;37.90;;;;;;5050037;28;20661;-52
2021/05/02 01:50:27;;;;;;;8.97;8.07;;;13.90;37.80;;;;;;5050497;28;20626;-53
2021/05/02 01:52:54;;;;;;;8.53;7.73;;;13.90;37.90;;;;;;5052031;28;20704;-53
2021/05/02 01:55:21;;;;;;;8.87;7.93;;;13.90;37.80;;;;;;5050358;28;20622;-52
2021/05/02 01:57:49;;;;;;;9.20;8.30;;;13.90;37.80;;;;;;5030578;28;583530;-52
2021/05/02 02:00:26;;;;;;;9.40;8.40;;;13.90;37.80;;;;;;5052146;28;20666;-52
2021/05/02 02:02:53;;;;;;;8.10;7.53;;;13.90;38.00;;;;;;5052690;28;20618;-52
2021/05/02 02:05:21;;;;;;;8.73;8.10;;;13.80;37.80;;;;;;5052258;28;21087;-52
2021/05/02 02:07:48;;;;;;;8.00;7.50;;;13.80;38.00;;;;;;5051777;28;20668;-51
2021/05/02 02:10:16;;;;;;;8.07;7.50;;;13.70;37.90;;;;;;5051339;28;20630;-52
2021/05/02 02:12:42;;;;;;;7.33;6.80;;;13.70;38.00;;;;;;5052025;28;20658;-52
2021/05/02 02:15:11;;;;;;;8.43;7.67;;;13.70;38.10;;;;;;5052179;28;20694;-52
2021/05/02 02:17:38;;;;;;;9.23;8.53;;;13.70;38.30;;;;;;5052048;28;20655;-53
2021/05/02 02:20:06;;;;;;;8.67;7.87;;;13.70;38.40;;;;;;5052328;28;20634;-52
2021/05/02 02:22:34;;;;;;;8.10;7.50;;;13.70;38.30;;;;;;5051525;28;20631;-52
2021/05/02 02:25:01;;;;;;;8.60;7.83;;;13.60;38.30;;;;;;5051445;28;20634;-52
2021/05/02 02:27:29;;;;;;;8.37;7.70;;;13.60;38.10;;;;;;5051212;28;20663;-52
2021/05/02 02:29:57;;;;;;;8.53;7.77;;;13.60;38.20;;;;;;5052098;28;20618;-53
2021/05/02 02:32:25;;;;;;;9.00;8.20;;;13.60;38.30;;;;;;5051763;28;21023;-54
2021/05/02 02:34:54;;;;;;;10.30;9.27;;;13.60;38.30;;;;;;5051607;28;20618;-54
2021/05/02 02:37:21;;;;;;;10.07;9.17;;;13.60;38.80;;;;;;5050772;28;20731;-52
2021/05/02 02:39:49;;;;;;;8.60;7.80;;;13.60;38.30;;;;;;5051400;28;20979;-53
2021/05/02 02:42:16;;;;;;;9.53;8.80;;;13.50;38.40;;;;;;5051878;28;20626;-53
2021/05/02 02:44:45;;;;;;;8.87;8.27;;;13.60;38.50;;;;;;5051670;28;20628;-53
2021/05/02 02:47:12;;;;;;;9.10;8.27;;;13.50;38.50;;;;;;5051009;28;20698;-52
2021/05/02 02:49:40;;;;;;;8.87;8.10;;;13.50;38.50;;;;;;5051060;28;20625;-52
2021/05/02 02:52:06;;;;;;;10.10;9.10;;;13.50;38.40;;;;;;5051449;28;20691;-52
2021/05/02 02:54:33;;;;;;;9.80;9.00;;;13.50;38.60;;;;;;5040054;28;20666;-53
2021/05/02 02:57:00;;;;;;;10.20;9.20;;;13.50;38.70;;;;;;5051289;28;20677;-52
2021/05/02 02:59:27;;;;;;;9.47;8.57;;;13.50;38.70;;;;;;5051465;28;21032;-52
2021/05/02 03:01:55;;;;;;;10.27;9.27;;;13.40;38.90;;;;;;5051114;28;20633;-52
2021/05/02 03:04:23;;;;;;;10.43;9.40;;;13.40;39.10;;;;;;5050997;28;21439;-52
2021/05/02 03:06:52;;;;;;;9.23;8.47;;;13.40;39.00;;;;;;5056499;28;20677;-51
2021/05/02 03:09:18;;;;;;;10.87;9.77;;;13.30;39.20;;;;;;5031893;28;20672;-52
2021/05/02 03:11:45;;;;;;;10.20;9.30;;;13.30;39.40;;;;;;5052129;28;20640;-52
2021/05/02 03:14:12;;;;;;;10.50;9.60;;;13.30;39.40;;;;;;5050218;28;20762;-53
2021/05/02 03:16:40;;;;;;;11.17;10.07;;;13.20;39.40;;;;;;5049773;28;20696;-54
2021/05/02 03:19:12;;;;;;;10.87;9.93;;;13.20;39.50;;;;;;5050234;28;20694;-54
2021/05/02 03:21:45;;;;;;;9.80;9.00;;;13.20;39.60;;;;;;5050791;28;20610;-53
2021/05/02 03:24:14;;;;;;;10.43;9.43;;;13.20;39.50;;;;;;5050892;28;20618;-54
2021/05/02 03:26:40;;;;;;;8.97;8.20;;;13.20;39.50;;;;;;5050950;28;20665;-53
2021/05/02 03:29:07;;;;;;;9.73;8.83;;;13.20;39.60;;;;;;5050703;28;20701;-53
2021/05/02 03:31:35;;;;;;;9.73;8.83;;;13.20;39.80;;;;;;5050679;28;20688;-54
2021/05/02 03:34:02;;;;;;;10.80;9.83;;;13.20;39.80;;;;;;5054768;28;20662;-54
2021/05/02 03:36:33;;;;;;;9.83;9.03;;;13.20;39.80;;;;;;5048163;28;20629;-55
2021/05/02 03:38:59;;;;;;;12.90;9.90;;;13.10;39.90;;;;;;5051354;28;20659;-53
2021/05/02 03:41:27;;;;;;;22.67;9.77;;;13.10;39.90;;;;;;5058828;28;20695;-54
2021/05/02 03:43:54;;;;;;;9.30;8.50;;;13.10;40.10;;;;;;5054711;28;20622;-53
2021/05/02 03:46:24;;;;;;;8.80;7.90;;;13.10;40.10;;;;;;5054657;28;21016;-54
2021/05/02 03:48:52;;;;;;;11.43;10.10;;;13.10;40.20;;;;;;5049606;28;20659;-54
2021/05/02 03:51:19;;;;;;;8.93;8.23;;;13.10;40.40;;;;;;5058831;28;20631;-54
2021/05/02 03:53:46;;;;;;;10.53;8.10;;;13.10;40.40;;;;;;5056036;28;20664;-54
2021/05/02 03:56:12;;;;;;;9.80;8.37;;;13.10;40.50;;;;;;5051577;28;20634;-53
2021/05/02 03:58:40;;;;;;;9.80;8.80;;;13.10;40.60;;;;;;5052959;28;20662;-53
2021/05/02 04:01:07;;;;;;;8.93;8.27;;;13.10;40.60;;;;;;5052947;28;20677;-53
2021/05/02 04:03:33;;;;;;;9.53;8.47;;;13.00;40.60;;;;;;5057361;28;20627;-54
2021/05/02 04:06:00;;;;;;;9.93;9.13;;;13.00;40.70;;;;;;5053046;28;21047;-53
2021/05/02 04:08:27;;;;;;;9.13;8.23;;;13.00;40.70;;;;;;5057467;28;20692;-53
2021/05/02 04:10:53;;;;;;;10.17;9.17;;;13.00;40.80;;;;;;5055070;28;20639;-52
2021/05/02 04:13:20;;;;;;;10.50;9.70;;;13.00;40.90;;;;;;5049385;28;20747;-52
2021/05/02 04:15:48;;;;;;;9.40;8.67;;;13.00;41.00;;;;;;5054000;28;21193;-53
2021/05/02 04:18:14;;;;;;;10.17;9.37;;;13.00;41.00;;;;;;5057107;28;20704;-53
2021/05/02 04:20:41;;;;;;;10.90;10.00;;;13.00;41.20;;;;;;5054014;28;20707;-52
2021/05/02 04:23:08;;;;;;;9.93;8.90;;;13.00;41.30;;;;;;5074423;28;20633;-51
2021/05/02 04:25:34;;;;;;;11.03;10.13;;;13.10;41.50;;;;;;5061936;28;21224;-51
2021/05/02 04:28:01;;;;;;;9.90;9.10;;;12.90;41.60;;;;;;5056761;28;20697;-52
2021/05/02 04:30:28;;;;;;;11.87;10.83;;;12.80;41.70;;;;;;5054404;28;20626;-52
2021/05/02 04:32:55;;;;;;;9.27;8.43;;;12.80;41.80;;;;;;5056522;28;20682;-51
2021/05/02 04:35:22;;;;;;;10.83;9.87;;;12.90;42.00;;;;;;5060364;28;20685;-51
2021/05/02 04:37:49;;;;;;;10.23;9.33;;;12.90;42.10;;;;;;5053541;28;20774;-52
2021/05/02 04:40:16;;;;;;;10.03;9.23;;;12.80;42.10;;;;;;5053774;28;20630;-52
2021/05/02 04:42:42;;;;;;;10.20;9.20;;;12.80;42.30;;;;;;5053820;28;20629;-52
2021/05/02 04:45:11;;;;;;;10.43;9.53;;;12.80;42.40;;;;;;5053266;28;20677;-52
2021/05/02 04:47:37;;;;;;;9.90;9.10;;;12.80;42.50;;;;;;5053537;28;20719;-52
2021/05/02 04:50:06;;;;;;;11.30;10.20;;;12.80;42.50;;;;;;5053361;28;20637;-53
2021/05/02 04:52:33;;;;;;;10.27;9.33;;;12.80;42.60;;;;;;5059489;28;20619;-52
2021/05/02 04:55:00;;;;;;;11.13;10.13;;;12.80;42.70;;;;;;5051384;28;21072;-52
2021/05/02 04:57:26;;;;;;;10.07;9.00;;;12.80;42.80;;;;;;5053051;28;20670;-52
2021/05/02 04:59:53;;;;;;;11.50;10.20;;;12.80;42.90;;;;;;5053659;28;20621;-52
2021/05/02 05:02:20;;;;;;;11.10;10.10;;;12.80;43.00;;;;;;5051411;28;21351;-52
2021/05/02 05:04:47;;;;;;;10.93;10.03;;;12.70;43.40;;;;;;5052373;28;20626;-52
2021/05/02 05:07:14;;;;;;;12.23;9.03;;;12.70;43.40;;;;;;5056460;28;20652;-52
2021/05/02 05:09:41;;;;;;;11.50;9.93;;;12.70;43.40;;;;;;5051989;28;20713;-52
2021/05/02 05:12:08;;;;;;;10.73;9.83;;;12.80;43.50;;;;;;5051693;28;20630;-53
2021/05/02 05:14:35;;;;;;;10.60;9.63;;;12.80;43.60;;;;;;5049350;28;20654;-52
2021/05/02 05:17:02;;;;;;;12.90;11.70;;;12.80;43.70;;;;;;5053102;28;20696;-52
2021/05/02 05:19:28;;;;;;;13.63;11.10;;;12.80;43.70;;;;;;5055856;28;20693;-51
2021/05/02 05:21:55;;;;;;;13.03;11.73;;;12.80;43.90;;;;;;5053205;28;20661;-51
2021/05/02 05:24:23;;;;;;;12.53;11.43;;;12.80;44.00;;;;;;5067093;28;20981;-53
2021/05/02 05:26:49;;;;;;;12.67;11.30;;;12.70;44.10;;;;;;5053323;28;21054;-52
2021/05/02 05:29:16;;;;;;;14.40;11.80;;;12.70;44.20;;;;;;5052683;28;20618;-52
2021/05/02 05:31:43;;;;;;;12.60;11.60;;;12.70;44.30;;;;;;5053354;28;20963;-52
2021/05/02 05:34:09;;;;;;;16.10;13.50;;;12.70;44.40;;;;;;5052826;28;20650;-52
2021/05/02 05:36:36;;;;;;;13.40;12.10;;;12.70;44.60;;;;;;5052345;28;20729;-52
2021/05/02 05:39:04;;;;;;;15.83;14.23;;;12.70;44.80;;;;;;5054597;28;20736;-52
2021/05/02 05:41:31;;;;;;;15.27;13.80;;;12.60;44.80;;;;;;5048121;28;20630;-52
2021/05/02 05:43:58;;;;;;;15.47;14.07;;;12.60;45.10;;;;;;5052185;28;20740;-52
2021/05/02 05:46:25;;;;;;;26.17;16.17;;;12.60;45.10;;;;;;5068519;28;20652;-52
2021/05/02 05:48:51;;;;;;;15.57;14.07;;;12.50;45.20;;;;;;5072225;28;20681;-52
2021/05/02 05:51:18;;;;;;;15.63;14.03;;;12.50;45.50;;;;;;5060408;28;20687;-52
2021/05/02 05:53:45;;;;;;;16.90;15.40;;;12.40;45.70;;;;;;5052556;28;20711;-52
2021/05/02 05:56:12;;;;;;;14.90;13.47;;;12.30;45.80;;;;;;5051823;28;20634;-52
2021/05/02 05:58:39;;;;;;;15.87;14.47;;;12.30;46.20;;;;;;5046362;28;20662;-53
2021/05/02 06:01:06;;;;;;;15.33;13.93;;;12.30;46.30;;;;;;5056940;28;20694;-51
2021/05/02 06:03:33;;;;;;;16.93;15.33;;;12.30;46.40;;;;;;5071685;28;20690;-52
2021/05/02 06:06:00;;;;;;;18.53;16.93;;;12.20;46.50;;;;;;5072023;28;20938;-52
2021/05/02 06:08:26;;;;;;;17.83;16.27;;;12.20;46.60;;;;;;5071860;28;20988;-52
2021/05/02 06:10:53;;;;;;;19.63;16.67;;;12.20;46.90;;;;;;5067892;28;20653;-51
2021/05/02 06:13:20;;;;;;;18.40;16.80;;;12.20;47.10;;;;;;5048221;28;20637;-52
2021/05/02 06:15:47;;;;;;;20.60;18.50;;;12.20;47.20;;;;;;5054644;28;20674;-52
2021/05/02 06:18:14;;;;;;;20.23;18.13;;;12.20;47.30;;;;;;5051218;28;21198;-52
2021/05/02 06:20:41;;;;;;;19.77;17.70;;;12.20;47.50;;;;;;5058921;28;20629;-51
2021/05/02 06:23:08;;;;;;;20.70;18.80;;;12.20;48.00;;;;;;5072039;28;20724;-52
2021/05/02 06:25:35;;;;;;;19.27;17.37;;;12.20;48.40;;;;;;5072482;28;20631;-52
2021/05/02 06:28:01;;;;;;;18.53;16.87;;;12.20;48.10;;;;;;5071397;28;20695;-51
2021/05/02 06:30:28;;;;;;;20.90;18.80;;;12.30;48.20;;;;;;5071647;28;20631;-52
2021/05/02 06:32:56;;;;;;;23.00;18.40;;;12.30;47.70;;;;;;5063758;28;20634;-52
2021/05/02 06:35:22;;;;;;;21.17;19.27;;;12.40;47.80;;;;;;5051616;28;20662;-53
2021/05/02 06:37:49;;;;;;;19.50;17.83;;;12.40;47.80;;;;;;5051777;28;20721;-52
2021/05/02 06:40:16;;;;;;;20.40;18.50;;;12.40;48.10;;;;;;5051979;28;20626;-51
2021/05/02 06:42:43;;;;;;;20.63;18.83;;;12.50;48.10;;;;;;5058261;28;20630;-52
2021/05/02 06:45:11;;;;;;;20.13;18.30;;;12.50;47.90;;;;;;5045933;28;20678;-51
2021/05/02 06:47:38;;;;;;;22.13;19.43;;;12.60;48.10;;;;;;5051500;28;21199;-52
2021/05/02 06:50:06;;;;;;;18.43;16.57;;;12.70;48.10;;;;;;5051429;28;20663;-52
2021/05/02 06:52:33;;;;;;;18.30;16.67;;;12.80;47.90;;;;;;5051659;28;20683;-53
2021/05/02 06:54:59;;;;;;;20.70;18.77;;;12.90;47.60;;;;;;5042805;28;20658;-52
2021/05/02 06:57:26;;;;;;;19.13;17.43;;;13.10;47.50;;;;;;5050397;28;21130;-52
2021/05/02 06:59:53;;;;;;;21.17;19.10;;;13.20;47.20;;;;;;5032107;28;20651;-52
2021/05/02 07:02:19;;;;;;;19.67;17.87;;;13.30;46.80;;;;;;5051307;28;20695;-52
2021/05/02 07:04:46;;;;;;;19.67;17.43;;;13.40;46.80;;;;;;5051220;28;21279;-52
2021/05/02 07:07:14;;;;;;;19.50;17.60;;;13.50;46.30;;;;;;5050538;28;20650;-51
2021/05/02 07:09:40;;;;;;;19.23;17.23;;;13.60;46.20;;;;;;5050818;28;20688;-51
2021/05/02 07:12:08;;;;;;;19.50;17.50;;;13.70;46.10;;;;;;5051324;28;21256;-51
2021/05/02 07:14:34;;;;;;;19.63;17.93;;;13.80;45.70;;;;;;5050843;28;20708;-51
2021/05/02 07:17:01;;;;;;;17.67;16.17;;;13.90;44.90;;;;;;5051969;28;20727;-51
2021/05/02 07:19:28;;;;;;;18.90;17.30;;;14.00;44.80;;;;;;5054890;28;20642;-51
2021/05/02 07:21:58;;;;;;;19.00;17.07;;;14.10;44.70;;;;;;5051147;28;20626;-51
2021/05/02 07:24:25;;;;;;;18.67;16.87;;;14.20;44.40;;;;;;5051073;28;20668;-52
2021/05/02 07:26:52;;;;;;;17.13;15.53;;;14.40;44.20;;;;;;5050823;28;20646;-53
2021/05/02 07:29:19;;;;;;;17.93;16.33;;;14.50;43.80;;;;;;5052366;28;21230;-52
2021/05/02 07:31:45;;;;;;;20.13;18.33;;;14.50;43.80;;;;;;5057797;28;20691;-52
2021/05/02 07:34:12;;;;;;;19.87;18.07;;;14.50;43.80;;;;;;5052594;28;20705;-53
2021/05/02 07:36:39;;;;;;;17.33;15.80;;;14.70;43.90;;;;;;5053689;28;21175;-52
2021/05/02 07:39:06;;;;;;;17.07;15.40;;;14.80;43.80;;;;;;5050507;28;20682;-53
2021/05/02 07:41:34;;;;;;;15.10;13.70;;;15.00;42.60;;;;;;5066333;28;20682;-53
2021/05/02 07:44:00;;;;;;;11.67;10.70;;;15.20;41.80;;;;;;5064915;28;20621;-54
2021/05/02 07:46:28;;;;;;;11.70;10.70;;;15.40;40.70;;;;;;5053916;28;20633;-53
2021/05/02 07:48:55;;;;;;;12.07;10.97;;;15.60;40.20;;;;;;5045492;28;20634;-53
2021/05/02 07:51:21;;;;;;;11.83;10.90;;;15.80;39.20;;;;;;5048755;28;20663;-52
2021/05/02 07:53:48;;;;;;;11.43;10.33;;;15.90;38.80;;;;;;5054993;28;20625;-53
2021/05/02 07:56:15;;;;;;;11.83;10.83;;;15.90;37.90;;;;;;5053171;28;20626;-52
2021/05/02 07:58:42;;;;;;;11.40;10.40;;;15.90;38.30;;;;;;5053121;28;20685;-52
2021/05/02 08:01:09;;;;;;;10.00;9.10;;;15.90;37.90;;;;;;5053026;28;20634;-53
2021/05/02 08:03:36;;;;;;;11.80;10.70;;;15.90;37.50;;;;;;5057290;28;20684;-53
2021/05/02 08:06:02;;;;;;;11.83;10.73;;;16.00;37.40;;;;;;5050674;28;20617;-53
2021/05/02 08:08:29;;;;;;;11.03;9.00;;;15.80;36.20;;;;;;5056583;28;20653;-52
2021/05/02 08:10:56;;;;;;;9.60;8.80;;;15.70;36.80;;;;;;5049678;28;20646;-53
2021/05/02 08:13:22;;;;;;;10.60;9.70;;;15.80;36.60;;;;;;5046147;28;20630;-52
2021/05/02 08:15:50;;;;;;;8.87;8.07;;;15.60;36.00;;;;;;5055332;28;20719;-52
2021/05/02 08:18:17;;;;;;;9.73;8.93;;;15.30;36.40;;;;;;5041808;28;20650;-52
2021/05/02 08:20:44;;;;;;;10.63;9.63;;;15.30;37.00;;;;;;5050545;28;20716;-52
2021/05/02 08:23:10;;;;;;;8.47;7.73;;;15.20;36.90;;;;;;5062055;28;20678;-53
2021/05/02 08:25:37;;;;;;;9.93;9.07;;;15.20;36.70;;;;;;5062973;28;20635;-52
2021/05/02 08:28:04;;;;;;;8.63;7.93;;;15.30;37.10;;;;;;5050445;28;20694;-53
2021/05/02 08:30:31;;;;;;;8.53;7.83;;;15.40;36.70;;;;;;5054361;28;21021;-52
2021/05/02 08:32:59;;;;;;;8.13;6.63;;;15.70;35.30;;;;;;5055255;28;20622;-53
2021/05/02 08:35:26;;;;;;;7.00;6.37;;;15.80;33.90;;;;;;5065414;28;20663;-54
2021/05/02 08:37:53;;;;;;;9.70;7.03;;;15.60;34.00;;;;;;5061504;28;20719;-52
2021/05/02 08:40:20;;;;;;;7.70;7.10;;;15.40;34.50;;;;;;5062773;28;20652;-52
2021/05/02 08:42:47;;;;;;;7.70;7.00;;;15.40;35.20;;;;;;5055200;28;20675;-52
2021/05/02 08:45:14;;;;;;;7.20;6.57;;;15.70;35.10;;;;;;5070359;28;20621;-52
2021/05/02 08:47:41;;;;;;;8.73;8.03;;;16.10;34.70;;;;;;5073169;28;20649;-51
2021/05/02 08:50:10;;;;;;;8.17;7.57;;;16.50;34.20;;;;;;5073730;28;20609;-52
2021/05/02 08:52:37;;;;;;;8.63;7.87;;;16.70;33.50;;;;;;5073977;28;20620;-53
2021/05/02 08:55:06;;;;;;;9.37;8.47;;;16.90;33.70;;;;;;5056368;28;21230;-52
2021/05/02 08:57:33;;;;;;;9.33;8.43;;;17.00;33.50;;;;;;5033266;28;21284;-52
2021/05/02 09:00:00;;;;;;;10.00;9.10;;;17.10;34.10;;;;;;5033586;28;20638;-52
2021/05/02 09:02:27;;;;;;;11.70;10.50;;;17.20;33.90;;;;;;5042965;28;20672;-51
2021/05/02 09:04:54;;;;;;;10.30;9.40;;;17.40;33.60;;;;;;5051440;28;20622;-52
2021/05/02 09:07:22;;;;;;;9.63;8.73;;;17.50;33.40;;;;;;5044599;28;21292;-52
2021/05/02 09:09:49;;;;;;;11.43;10.43;;;17.40;33.60;;;;;;5046229;28;20626;-53
2021/05/02 09:12:20;;;;;;;9.33;8.53;;;17.20;33.30;;;;;;5052087;28;20625;-52
2021/05/02 09:14:47;;;;;;;8.83;8.13;;;16.80;33.40;;;;;;5053158;28;20666;-52
2021/05/02 09:17:17;;;;;;;9.20;8.40;;;16.50;34.00;;;;;;5046294;28;20719;-52
2021/05/02 09:19:48;;;;;;;13.07;9.93;;;16.20;34.40;;;;;;5054111;28;20634;-53
2021/05/02 09:22:15;;;;;;;9.53;8.63;;;16.00;35.00;;;;;;5063089;28;20629;-54
2021/05/02 09:24:43;;;;;;;9.07;8.17;;;15.90;35.90;;;;;;5049704;28;20626;-53
2021/05/02 09:27:11;;;;;;;9.03;8.33;;;15.80;36.10;;;;;;5053198;28;21474;-53
2021/05/02 09:29:38;;;;;;;8.97;8.20;;;15.70;35.50;;;;;;5049678;28;20811;-53
2021/05/02 09:32:06;;;;;;;9.03;8.20;;;15.70;35.60;;;;;;5052030;28;20756;-53
2021/05/02 09:34:33;;;;;;;7.93;7.23;;;15.90;35.70;;;;;;5050034;28;20657;-54
2021/05/02 09:37:02;;;;;;;8.57;7.87;;;16.20;35.10;;;;;;5048739;28;20750;-54
2021/05/02 09:39:45;;;;;;;9.23;8.33;;;16.50;35.00;;;;;;5048945;28;21194;-53
2021/05/02 09:42:15;;;;;;;8.20;7.50;;;16.70;34.00;;;;;;5052651;28;20622;-54
2021/05/02 09:44:43;;;;;;;8.43;7.60;;;16.70;33.60;;;;;;5055199;28;20980;-53
2021/05/02 09:47:28;;;;;;;6.50;5.90;;;16.70;33.60;;;;;;5052034;28;20654;-53
2021/05/02 09:50:05;;;;;;;6.67;6.13;;;16.40;33.20;;;;;;5067272;28;20637;-53
2021/05/02 09:52:46;;;;;;;7.50;6.80;;;16.10;32.80;;;;;;5055591;28;20630;-52
2021/05/02 09:55:30;;;;;;;7.03;6.43;;;15.70;33.30;;;;;;5052584;28;20711;-53
2021/05/02 09:57:58;;;;;;;6.40;5.90;;;15.80;33.80;;;;;;5064727;28;20661;-53
2021/05/02 10:00:27;;;;;;;6.10;5.60;;;15.90;33.80;;;;;;5052460;28;20652;-53
2021/05/02 10:02:54;;;;;;;5.47;5.07;;;16.20;33.20;;;;;;5051942;28;20626;-53
2021/05/02 10:05:21;;;;;;;6.27;5.73;;;16.40;33.20;;;;;;5067475;28;20628;-53
2021/05/02 10:07:47;;;;;;;8.20;6.53;;;16.40;33.10;;;;;;5071203;28;20653;-53
2021/05/02 10:10:14;;;;;;;7.27;6.57;;;16.30;33.30;;;;;;5071901;28;20621;-53
2021/05/02 10:12:42;;;;;;;7.23;6.60;;;16.20;33.80;;;;;;5071434;28;21221;-54
2021/05/02 10:15:09;;;;;;;6.60;6.10;;;16.10;33.90;;;;;;5058230;28;21227;-53
2021/05/02 10:17:36;;;;;;;6.57;5.97;;;16.10;33.80;;;;;;5053962;28;20662;-54
2021/05/02 10:20:03;;;;;;;7.70;5.60;;;16.00;33.50;;;;;;5051286;28;21365;-54
2021/05/02 10:22:30;;;;;;;6.63;6.03;;;16.00;33.80;;;;;;5068665;28;20678;-54
2021/05/02 10:24:57;;;;;;;7.20;6.70;;;16.10;33.10;;;;;;5067040;28;20633;-53
2021/05/02 10:27:24;;;;;;;6.83;6.33;;;16.10;33.30;;;;;;5043649;28;20743;-54
2021/05/02 10:29:52;;;;;;;9.03;6.83;;;16.00;33.10;;;;;;5052030;28;20630;-54
2021/05/02 10:32:20;;;;;;;7.13;5.77;;;16.00;33.90;;;;;;5047886;28;20665;-52
2021/05/02 10:34:48;;;;;;;6.53;5.93;;;15.90;33.50;;;;;;5050645;28;20761;-52
2021/05/02 10:37:27;;;;;;;6.37;5.77;;;15.80;33.00;;;;;;5039589;28;20646;-51
2021/05/02 10:39:54;;;;;;;6.30;5.00;;;15.90;33.30;;;;;;5047591;28;20619;-52
2021/05/02 10:42:51;;;;;;;5.80;5.30;;;16.00;33.40;;;;;;5056348;28;20671;-52
2021/05/02 10:45:47;;;;;;;6.57;6.03;;;16.00;34.10;;;;;;4983269;28;20891;-52
2021/05/02 10:48:47;;;;;;;5.83;5.43;;;16.10;34.10;;;;;;5044199;28;21147;-51
2021/05/02 10:51:28;;;;;;;6.33;5.73;;;16.20;34.20;;;;;;5047465;28;20680;-52
2021/05/02 10:54:03;;;;;;;6.53;5.13;;;16.20;34.60;;;;;;5030932;28;20614;-53
2021/05/02 10:56:50;;;;;;;6.83;6.17;;;16.20;34.00;;;;;;5053759;28;20736;-53
2021/05/02 10:59:17;;;;;;;7.77;5.30;;;16.20;34.60;;;;;;5041842;28;20671;-53
2021/05/02 11:01:45;;;;;;;6.43;5.70;;;16.30;34.90;;;;;;5050138;28;20630;-53
2021/05/02 11:04:13;;;;;;;6.57;5.80;;;16.50;34.80;;;;;;5044328;28;20626;-53
2021/05/02 11:06:55;;;;;;;5.50;5.00;;;16.60;33.40;;;;;;5045712;28;20642;-53
2021/05/02 11:09:27;;;;;;;5.20;4.90;;;16.50;33.20;;;;;;5028883;28;20630;-54
2021/05/02 11:11:56;;;;;;;5.53;5.03;;;16.50;33.00;;;;;;5049703;28;21254;-54
2021/05/02 11:14:32;;;;;;;5.80;5.40;;;16.40;33.20;;;;;;5049946;28;20618;-54
2021/05/02 11:17:19;;;;;;;4.77;4.20;;;16.40;33.90;;;;;;5034793;28;21277;-53
2021/05/02 11:19:47;;;;;;;5.70;4.40;;;16.80;32.10;;;;;;5040104;28;20641;-53
2021/05/02 11:22:16;;;;;;;5.10;4.17;;;16.90;32.20;;;;;;5049005;28;21182;-52
2021/05/02 11:25:10;;;;;;;5.70;5.07;;;16.80;31.80;;;;;;5032778;28;21309;-52
2021/05/02 11:28:01;;;;;;;5.90;4.83;;;16.90;32.30;;;;;;5046964;28;20652;-52
2021/05/02 11:30:30;;;;;;;5.53;4.30;;;17.00;31.90;;;;;;5030396;28;20627;-54
2021/05/02 11:33:00;;;;;;;4.20;3.90;;;16.90;31.60;;;;;;5043074;28;20693;-53
2021/05/02 11:36:03;;;;;;;4.20;3.90;;;16.70;31.60;;;;;;5058542;28;20646;-53
2021/05/02 11:38:38;;;;;;;4.90;4.50;;;16.60;31.40;;;;;;5048006;28;20645;-53
2021/05/02 11:41:08;;;;;;;4.33;3.93;;;16.30;31.10;;;;;;5045555;28;21269;-53
2021/05/02 11:43:36;;;;;;;6.43;4.00;;;16.40;31.50;;;;;;5044017;28;20681;-54
2021/05/02 11:46:04;;;;;;;3.90;3.60;;;16.50;32.30;;;;;;5027884;28;20653;-53
2021/05/02 11:48:33;;;;;;;4.30;3.90;;;16.50;32.70;;;;;;5049085;28;20715;-52
2021/05/02 11:51:00;;;;;;;8.33;4.40;;;16.50;33.20;;;;;;5050257;28;20626;-51
2021/05/02 11:53:43;;;;;;;3.50;3.20;;;16.50;33.20;;;;;;5045331;28;20619;-53
2021/05/02 11:56:14;;;;;;;4.60;4.30;;;16.70;32.90;;;;;;5044236;28;20690;-54
2021/05/02 11:58:41;;;;;;;4.07;3.77;;;16.70;32.90;;;;;;5042782;28;20723;-54
2021/05/02 12:01:13;;;;;;;3.50;3.20;;;16.70;32.80;;;;;;5051636;28;20666;-54
2021/05/02 12:03:44;;;;;;;3.10;2.90;;;17.00;32.60;;;;;;5053276;28;20688;-54
2021/05/02 12:06:19;;;;;;;4.23;3.80;;;17.30;32.40;;;;;;5052173;28;21246;-54
2021/05/02 12:08:46;;;;;;;4.40;3.80;;;17.40;31.90;;;;;;5036263;28;20696;-54
2021/05/02 12:11:13;;;;;;;3.70;3.30;;;17.80;32.10;;;;;;5034169;28;20622;-54
2021/05/02 12:13:42;;;;;;;3.83;3.47;;;18.10;30.90;;;;;;5048643;28;20638;-54
2021/05/02 12:16:11;;;;;;;3.10;2.90;;;18.20;29.70;;;;;;5054094;28;21276;-53
2021/05/02 12:18:50;;;;;;;3.73;3.43;;;17.90;29.90;;;;;;5038884;28;21293;-54
2021/05/02 12:21:18;;;;;;;3.60;3.30;;;18.00;30.40;;;;;;5046640;28;20638;-53
2021/05/02 12:23:47;;;;;;;3.20;2.80;;;18.40;30.40;;;;;;5037542;28;21103;-53
2021/05/02 12:26:14;;;;;;;3.23;3.03;;;19.00;30.20;;;;;;5081659;22;21062;-52
2021/05/02 12:28:41;;;;;;;4.27;3.83;;;19.20;29.90;;;;;;5078389;28;20678;-53
2021/05/02 12:31:10;;;;;;;4.50;3.33;;;19.20;29.20;;;;;;5072336;28;20690;-53
2021/05/02 12:33:37;;;;;;;3.67;3.37;;;19.20;29.30;;;;;;5072715;28;20698;-53
2021/05/02 12:36:07;;;;;;;3.20;2.80;;;19.30;29.10;;;;;;5084824;28;20691;-53
2021/05/02 12:38:34;;;;;;;3.87;3.57;;;19.50;28.80;;;;;;5092514;28;20628;-53
2021/05/02 12:41:02;;;;;;;3.93;3.50;;;19.60;28.20;;;;;;5092842;28;20628;-54
2021/05/02 12:43:29;;;;;;;3.03;2.47;;;19.50;28.00;;;;;;5074559;28;20628;-54
2021/05/02 12:45:56;;;;;;;2.97;2.77;;;19.50;27.60;;;;;;5093576;28;20652;-54